Time;durP1;ratioP1;P1;durP2;ratioP2;P2;SDS_P1;SDS_P2;PMS_P1;PMS_P2;Temp;Humidity;BMP_temperature;BMP_pressure;BME280_temperature;BME280_humidity;BME280_pressure;Samples;Min_cycle;Max_cycle;Signal;HPM_P1;HPM_P2
2021/12/08 00:00:31;;;;;;;10.55;5.18;;;;;;;-142.75;100.00;76214.00;4988229;28;20087;-67
2021/12/08 00:02:58;;;;;;;10.97;4.97;;;;;;;-142.75;100.00;76221.88;4988862;28;20041;-67
2021/12/08 00:05:24;;;;;;;9.20;4.77;;;;;;;-142.75;100.00;76202.19;4987659;28;20018;-66
2021/12/08 00:07:50;;;;;;;10.63;5.43;;;;;;;-142.75;100.00;76188.44;4989345;28;20479;-67
2021/12/08 00:13:08;;;;;;;9.87;5.30;;;;;;;-142.75;100.00;76176.63;5007439;28;20561;-67
2021/12/08 00:15:43;;;;;;;;;;;;;;;-142.75;100.00;76164.81;4989116;28;20075;-67
2021/12/08 00:18:12;;;;;;;11.37;5.10;;;;;;;-142.75;100.00;76151.03;4988706;28;19921;-67
2021/12/08 00:20:40;;;;;;;11.43;5.23;;;;;;;-142.75;100.00;76141.19;4987942;28;20026;-68
2021/12/08 00:23:07;;;;;;;8.20;5.37;;;;;;;-142.75;100.00;76125.44;4988500;28;20023;-67
2021/12/08 00:25:33;;;;;;;13.83;7.10;;;;;;;-142.75;100.00;76121.50;4988659;28;20030;-67
2021/12/08 00:27:59;;;;;;;12.10;7.50;;;;;;;-142.75;100.00;76133.31;4988838;28;20042;-67
2021/12/08 00:30:27;;;;;;;9.68;6.57;;;;;;;-142.75;100.00;76115.59;4986699;28;20487;-66
2021/12/08 00:32:54;;;;;;;10.87;6.10;;;;;;;-142.75;100.00;76109.69;4988487;28;20026;-67
2021/12/08 00:35:20;;;;;;;16.73;6.63;;;;;;;-142.75;100.00;76115.59;4988620;28;20534;-66
2021/12/08 00:37:46;;;;;;;9.55;6.28;;;;;;;-142.75;100.00;76091.97;5012664;22;20129;-66
2021/12/08 00:40:15;;;;;;;12.10;6.15;;;;;;;-142.75;100.00;76090.00;4987739;28;20026;-66
2021/12/08 00:42:40;;;;;;;11.40;6.60;;;;;;;-142.75;100.00;76097.88;4989295;28;20026;-67
2021/12/08 00:45:08;;;;;;;11.07;5.72;;;;;;;-142.75;100.00;76093.94;5008033;28;20387;-67
2021/12/08 00:47:33;;;;;;;13.17;5.77;;;;;;;-142.75;100.00;76101.81;5007845;28;20026;-68
2021/12/08 00:49:58;;;;;;;10.45;5.43;;;;;;;-142.75;100.00;76101.81;5005812;28;20379;-66
2021/12/08 00:52:28;;;;;;;11.30;5.10;;;;;;;-142.75;100.00;76117.56;5007852;28;20063;-67
2021/12/08 00:54:54;;;;;;;8.97;4.97;;;;;;;-142.75;100.00;76113.63;5007768;28;20022;-67
2021/12/08 00:57:20;;;;;;;12.80;6.78;;;;;;;-142.75;100.00;76117.56;5008055;28;20056;-66
2021/12/08 00:59:45;;;;;;;10.27;4.45;;;;;;;-142.75;100.00;76115.59;5006956;28;20440;-67
2021/12/08 01:02:10;;;;;;;10.45;5.18;;;;;;;-142.75;100.00;76109.69;5007705;28;20623;-67
2021/12/08 01:04:35;;;;;;;8.73;5.00;;;;;;;-142.75;100.00;76109.69;5007522;28;20034;-66
2021/12/08 01:07:02;;;;;;;13.07;4.93;;;;;;;-142.75;100.00;76113.63;5007527;28;20029;-67
2021/12/08 01:09:28;;;;;;;13.90;4.80;;;;;;;-142.75;100.00;76107.72;5007377;28;20284;-67
2021/12/08 01:11:55;;;;;;;8.45;4.40;;;;;;;-142.75;100.00;76097.88;5005599;28;20030;-67
2021/12/08 01:14:21;;;;;;;10.03;4.27;;;;;;;-142.75;100.00;76105.75;5007731;28;20471;-66
2021/12/08 01:16:46;;;;;;;12.65;7.00;;;;;;;-142.75;100.00;76103.78;5006142;28;20018;-67
2021/12/08 01:19:11;;;;;;;7.82;5.05;;;;;;;-142.75;100.00;76105.75;5007411;28;20116;-66
2021/12/08 01:21:37;;;;;;;9.83;5.33;;;;;;;-142.75;100.00;76115.59;5006705;28;20076;-66
2021/12/08 01:24:02;;;;;;;10.32;4.88;;;;;;;-142.75;100.00;76123.47;5007204;28;20288;-66
2021/12/08 01:26:28;;;;;;;10.25;5.30;;;;;;;-142.75;100.00;76123.47;5007193;28;20466;-66
2021/12/08 01:28:56;;;;;;;11.80;4.65;;;;;;;-142.75;100.00;76129.38;5007289;28;20050;-68
2021/12/08 01:31:22;;;;;;;12.07;4.93;;;;;;;-142.75;100.00;76145.13;5006905;28;20104;-68
2021/12/08 01:33:48;;;;;;;10.20;5.25;;;;;;;-142.75;100.00;76123.47;5007452;28;20018;-69
2021/12/08 01:36:13;;;;;;;12.50;5.35;;;;;;;-142.75;100.00;76129.38;4986375;28;20030;-66
2021/12/08 01:38:39;;;;;;;14.00;5.22;;;;;;;-142.75;100.00;76121.50;4987798;28;20030;-65
2021/12/08 01:41:05;;;;;;;10.98;5.35;;;;;;;-142.75;100.00;76113.63;4987051;28;20057;-66
2021/12/08 01:43:41;;;;;;;13.17;5.20;;;;;;;-142.75;100.00;76099.84;4991708;28;20029;-66
2021/12/08 01:46:11;;;;;;;9.88;4.82;;;;;;;-142.75;100.00;76099.84;5007135;28;20029;-66
2021/12/08 01:48:40;;;;;;;11.27;5.20;;;;;;;-142.75;100.00;76101.81;5006936;28;20026;-66
2021/12/08 01:51:12;;;;;;;16.40;5.27;;;;;;;-142.75;100.00;76111.66;5006215;28;20051;-66
2021/12/08 01:53:39;;;;;;;11.43;4.03;;;;;;;-142.75;100.00;76117.56;5006374;28;20060;-66
2021/12/08 01:56:06;;;;;;;12.37;5.43;;;;;;;-142.75;100.00;76109.69;5006717;28;20041;-66
2021/12/08 01:58:32;;;;;;;16.63;5.53;;;;;;;-142.75;100.00;76121.50;5006805;28;20022;-67
2021/12/08 02:01:02;;;;;;;13.90;5.50;;;;;;;-142.75;100.00;76137.25;5004820;28;20503;-69
2021/12/08 02:03:27;;;;;;;19.83;6.03;;;;;;;-142.75;100.00;76137.25;5005406;28;20018;-69
2021/12/08 02:05:54;;;;;;;20.05;5.97;;;;;;;-142.75;100.00;76131.34;5006710;28;20041;-66
2021/12/08 02:08:21;;;;;;;16.87;5.80;;;;;;;-142.75;100.00;76127.41;5007004;28;20395;-69
2021/12/08 02:10:47;;;;;;;19.50;5.90;;;;;;;-142.75;100.00;76125.44;5005941;28;20057;-66
2021/12/08 02:13:13;;;;;;;21.15;6.15;;;;;;;-142.75;100.00;76117.56;5006755;28;20026;-69
2021/12/08 02:15:39;;;;;;;19.67;6.57;;;;;;;-142.75;100.00;76127.41;5006663;28;20026;-69
2021/12/08 02:18:08;;;;;;;18.98;6.57;;;;;;;-142.75;100.00;76129.38;5006528;28;20117;-69
2021/12/08 02:20:34;;;;;;;18.30;5.67;;;;;;;-142.75;100.00;76135.28;5004587;28;20060;-69
2021/12/08 02:22:59;;;;;;;16.77;5.38;;;;;;;-142.75;100.00;76131.34;5006561;28;21407;-69
2021/12/08 02:25:27;;;;;;;12.90;4.70;;;;;;;-142.75;100.00;76141.19;5006441;28;20444;-69
2021/12/08 02:27:55;;;;;;;18.07;5.50;;;;;;;-142.75;100.00;76160.88;5006414;28;20069;-69
2021/12/08 02:49:28;;;;;;;12.00;3.88;;;;;;;-142.75;100.00;76145.13;5049150;28;20395;-66
2021/12/08 02:51:53;;;;;;;12.27;2.47;;;;;;;-142.75;100.00;76133.31;5005656;28;20030;-66
2021/12/08 02:54:20;;;;;;;10.40;2.33;;;;;;;-142.75;100.00;76141.19;5006599;28;20028;-67
2021/12/08 02:56:46;;;;;;;8.73;2.10;;;;;;;-142.75;100.00;76125.44;5006178;28;20536;-67
2021/12/08 02:59:11;;;;;;;10.48;2.53;;;;;;;-142.75;100.00;76137.25;5006347;28;20030;-67
2021/12/08 03:01:38;;;;;;;8.77;2.30;;;;;;;-142.75;100.00;76135.28;5005335;28;20455;-67
2021/12/08 03:04:05;;;;;;;9.17;1.63;;;;;;;-142.75;100.00;76153.00;5006547;28;20154;-67
2021/12/08 03:06:31;;;;;;;9.20;2.17;;;;;;;-142.75;100.00;76133.31;5008135;28;20030;-66
2021/12/08 03:08:56;;;;;;;12.70;2.88;;;;;;;-142.75;100.00;76129.38;5009510;28;20071;-66
2021/12/08 03:11:22;;;;;;;11.63;2.35;;;;;;;-142.75;100.00;76147.09;5009190;28;20029;-67
2021/12/08 03:14:09;;;;;;;6.28;2.28;;;;;;;-142.75;100.00;76147.09;5010372;28;20087;-67
2021/12/08 03:16:37;;;;;;;9.65;2.03;;;;;;;-142.75;100.00;76147.09;5011350;28;21503;-66
2021/12/08 03:19:03;;;;;;;12.27;2.23;;;;;;;-142.75;100.00;76154.97;5011254;28;20086;-66
2021/12/08 03:21:31;;;;;;;12.05;2.50;;;;;;;-142.75;100.00;76147.09;5009378;28;20022;-67
2021/12/08 03:26:33;;;;;;;14.97;2.90;;;;;;;-142.75;100.00;76151.03;4991178;28;20042;-67
2021/12/08 03:29:18;;;;;;;11.33;3.23;;;;;;;-142.75;100.00;76149.06;4991259;28;20025;-66
2021/12/08 03:31:45;;;;;;;14.63;2.90;;;;;;;-142.75;100.00;76154.97;4991236;28;20027;-67
2021/12/08 03:34:11;;;;;;;14.80;3.20;;;;;;;-142.75;100.00;76160.88;4999310;28;20067;-67
2021/12/08 03:36:37;;;;;;;14.30;3.40;;;;;;;-142.75;100.00;76160.88;5010485;28;20429;-67
2021/12/08 03:39:04;;;;;;;12.13;2.90;;;;;;;-142.75;100.00;76172.69;5005404;28;20050;-66
2021/12/08 03:41:33;;;;;;;14.67;3.30;;;;;;;-142.75;100.00;76182.53;4990798;28;20030;-66
2021/12/08 03:43:59;;;;;;;11.23;2.90;;;;;;;-142.75;100.00;76184.50;4990881;28;20018;-66
2021/12/08 03:46:27;;;;;;;11.55;2.83;;;;;;;-142.75;100.00;76192.38;4991256;28;20423;-66
2021/12/08 03:48:53;;;;;;;13.27;3.17;;;;;;;-142.75;100.00;76188.44;4991000;28;20019;-67
2021/12/08 03:51:19;;;;;;;20.67;3.97;;;;;;;-142.75;100.00;76192.38;4988099;28;20072;-67
2021/12/08 03:53:45;;;;;;;15.45;3.88;;;;;;;-142.75;100.00;76196.31;4989428;28;20432;-67
2021/12/08 03:56:11;;;;;;;15.98;3.33;;;;;;;-142.75;100.00;76198.28;4989661;28;20042;-67
2021/12/08 03:58:36;;;;;;;15.57;3.95;;;;;;;-142.75;100.00;76219.91;4989750;28;20030;-67
2021/12/08 04:01:04;;;;;;;15.73;3.33;;;;;;;-142.75;100.00;76217.94;4989106;28;20476;-67
2021/12/08 04:03:32;;;;;;;20.33;4.13;;;;;;;-142.75;100.00;76233.69;4989383;28;20023;-67
2021/12/08 04:06:02;;;;;;;14.17;3.30;;;;;;;-142.75;100.00;76239.59;4988010;28;20062;-67
2021/12/08 04:08:41;;;;;;;14.30;4.03;;;;;;;-142.75;100.00;76241.56;4988851;28;20034;-66
2021/12/08 04:11:08;;;;;;;16.33;3.90;;;;;;;-142.75;100.00;76229.75;4988446;28;20034;-67
2021/12/08 04:13:48;;;;;;;9.93;3.50;;;;;;;-142.75;100.00;76225.81;4988904;28;20030;-67
2021/12/08 04:16:17;;;;;;;13.00;4.23;;;;;;;-142.75;100.00;76225.81;4988603;28;20117;-67
2021/12/08 04:18:43;;;;;;;10.50;3.40;;;;;;;-142.75;100.00;76235.66;4988941;28;20030;-67
2021/12/08 04:21:10;;;;;;;13.02;2.97;;;;;;;-142.75;100.00;76235.66;4988462;28;20426;-67
2021/12/08 04:23:38;;;;;;;10.27;2.50;;;;;;;-142.75;100.00;76247.47;4989156;28;20499;-67
2021/12/08 04:26:09;;;;;;;10.90;3.13;;;;;;;-142.75;100.00;76239.59;4989132;28;20087;-67
2021/12/08 04:28:36;;;;;;;11.97;2.70;;;;;;;-142.75;100.00;76249.44;4997027;28;20383;-67
2021/12/08 04:31:10;;;;;;;10.40;2.50;;;;;;;-142.75;100.00;76263.22;5007582;28;20038;-67
2021/12/08 04:33:37;;;;;;;12.70;2.50;;;;;;;-142.75;100.00;76259.28;5008310;28;20026;-67
2021/12/08 04:36:03;;;;;;;;;;;;;;;-142.75;100.00;76263.22;5008384;28;20034;-67
2021/12/08 04:38:37;;;;;;;7.72;1.70;;;;;;;-142.75;100.00;76282.91;5008514;28;19917;-67
2021/12/08 04:41:07;;;;;;;9.63;1.70;;;;;;;-142.75;100.00;76290.78;5007414;28;20026;-67
2021/12/08 04:43:45;;;;;;;9.13;2.00;;;;;;;-142.75;100.00;76306.53;5008078;28;20125;-67
2021/12/08 04:52:38;;;;;;;6.57;1.13;;;;;;;-142.75;100.00;76320.31;5007205;28;20407;-66
2021/12/08 05:00:44;;;;;;;7.93;1.40;;;;;;;-142.75;100.00;76306.53;5007489;28;20045;-69
2021/12/08 05:06:03;;;;;;;3.87;1.13;;;;;;;-142.75;100.00;76300.63;4988148;28;20442;-67
2021/12/08 05:08:41;;;;;;;5.53;1.73;;;;;;;-142.75;100.00;76326.22;4986872;28;20533;-67
2021/12/08 05:11:25;;;;;;;7.07;1.40;;;;;;;-142.75;100.00;76312.44;4987320;28;20741;-67
2021/12/08 05:13:56;;;;;;;5.80;1.47;;;;;;;-142.75;100.00;76306.53;4988364;28;20018;-67
2021/12/08 05:16:24;;;;;;;8.77;1.13;;;;;;;-142.75;100.00;76341.97;4988334;28;20057;-66
2021/12/08 05:18:51;;;;;;;8.33;1.57;;;;;;;-142.75;100.00;76326.22;4988286;28;20717;-66
2021/12/08 05:21:22;;;;;;;5.10;1.07;;;;;;;-142.75;100.00;76326.22;4987368;28;20034;-67
2021/12/08 05:23:53;;;;;;;7.40;1.80;;;;;;;-142.75;100.00;76328.19;4988224;28;20026;-66
2021/12/08 05:26:24;;;;;;;10.30;1.90;;;;;;;-142.75;100.00;76314.41;4986472;28;20492;-67
2021/12/08 05:28:52;;;;;;;3.43;0.97;;;;;;;-142.75;100.00;76340.00;4987813;28;20026;-67
2021/12/08 05:31:22;;;;;;;7.07;1.50;;;;;;;-142.75;100.00;76330.16;4987348;28;20022;-67
2021/12/08 05:33:48;;;;;;;6.67;1.13;;;;;;;-142.75;100.00;76318.34;4987842;28;20026;-67
2021/12/08 05:36:14;;;;;;;;;;;;;;;-142.75;100.00;76328.19;4987919;28;20054;-67
2021/12/08 05:38:41;;;;;;;7.03;0.93;;;;;;;-142.75;100.00;76328.19;4987646;28;19937;-67
2021/12/08 05:41:13;;;;;;;8.53;1.80;;;;;;;-142.75;100.00;76326.22;4986965;28;20389;-66
2021/12/08 05:43:40;;;;;;;16.73;1.80;;;;;;;-142.75;100.00;76343.94;4986177;28;20031;-67
2021/12/08 05:46:05;;;;;;;8.83;1.87;;;;;;;-142.75;100.00;76351.81;4987351;28;20495;-67
2021/12/08 05:48:33;;;;;;;7.03;1.67;;;;;;;-142.75;100.00;76359.66;4987505;28;20055;-67
2021/12/08 05:51:04;;;;;;;10.97;1.57;;;;;;;-142.75;100.00;76353.78;5006423;28;20411;-67
2021/12/08 05:53:32;;;;;;;6.77;1.43;;;;;;;-142.75;100.00;76347.84;5006940;28;20026;-67
2021/12/08 05:55:57;;;;;;;5.63;1.60;;;;;;;-142.75;100.00;76349.81;5006753;28;20037;-67
2021/12/08 05:58:25;;;;;;;5.95;1.70;;;;;;;-142.75;100.00;76361.63;5006962;28;20025;-67
2021/12/08 06:01:06;;;;;;;8.67;1.30;;;;;;;-142.75;100.00;76371.47;4994151;28;20026;-67
2021/12/08 06:03:33;;;;;;;5.80;1.57;;;;;;;-142.75;100.00;76377.38;4995581;28;20027;-66
2021/12/08 06:05:59;;;;;;;5.90;1.83;;;;;;;-142.75;100.00;76373.44;5001952;28;20373;-67
2021/12/08 06:08:28;;;;;;;6.88;1.38;;;;;;;-142.75;100.00;76369.50;4997317;28;20108;-67
2021/12/08 06:10:54;;;;;;;16.97;2.47;;;;;;;-142.75;100.00;76377.38;5004723;28;20152;-67
2021/12/08 06:13:19;;;;;;;8.02;1.80;;;;;;;-142.75;100.00;76371.47;5007119;28;20014;-67
2021/12/08 06:15:46;;;;;;;12.73;2.23;;;;;;;-142.75;100.00;76395.09;5006690;28;20518;-66
2021/12/08 06:18:13;;;;;;;14.00;2.00;;;;;;;-142.75;100.00;76389.19;5005414;28;20257;-66
2021/12/08 06:20:38;;;;;;;14.50;1.80;;;;;;;-142.75;100.00;76401.00;5005855;28;20034;-67
2021/12/08 06:23:08;;;;;;;11.52;2.38;;;;;;;-142.75;100.00;76406.91;5006545;28;20034;-67
2021/12/08 06:25:34;;;;;;;9.27;1.70;;;;;;;-142.75;100.00;76420.69;5006507;28;20372;-66
2021/12/08 06:28:00;;;;;;;9.70;1.80;;;;;;;-142.75;100.00;76428.56;5006364;28;20029;-67
2021/12/08 06:30:29;;;;;;;13.20;2.13;;;;;;;-142.75;100.00;76420.69;5004448;28;20041;-67
2021/12/08 06:32:55;;;;;;;11.47;2.13;;;;;;;-142.75;100.00;76416.75;5006082;28;20026;-67
2021/12/08 06:35:29;;;;;;;7.40;1.87;;;;;;;-142.75;100.00;76432.50;5006747;28;20018;-67
2021/12/08 06:37:55;;;;;;;10.70;1.80;;;;;;;-142.75;100.00;76414.78;5008158;23;20088;-69
2021/12/08 06:40:38;;;;;;;9.38;1.83;;;;;;;-142.75;100.00;76432.50;4987280;28;20480;-67
2021/12/08 06:43:06;;;;;;;10.87;1.80;;;;;;;-142.75;100.00;76420.69;4989083;28;20041;-69
2021/12/08 06:45:36;;;;;;;11.17;1.57;;;;;;;-142.75;100.00;76412.81;4990301;28;20034;-67
2021/12/08 06:48:06;;;;;;;11.27;2.10;;;;;;;-142.75;100.00;76406.91;4988939;28;20544;-68
2021/12/08 06:50:40;;;;;;;13.00;1.80;;;;;;;-142.75;100.00;76414.78;4988151;28;20034;-69
2021/12/08 06:53:06;;;;;;;9.20;1.93;;;;;;;-142.75;100.00;76418.72;4990113;28;20026;-69
2021/12/08 06:55:48;;;;;;;9.82;2.00;;;;;;;-142.75;100.00;76426.59;4988838;28;20372;-69
2021/12/08 06:58:19;;;;;;;12.57;2.23;;;;;;;-142.75;100.00;76432.50;4989006;28;20030;-68
2021/12/08 07:03:42;;;;;;;13.40;2.13;;;;;;;-142.75;100.00;76440.38;4990157;28;20034;-69
2021/12/08 07:09:01;;;;;;;10.87;1.70;;;;;;;-142.75;100.00;76444.31;4989962;28;20038;-69
2021/12/08 07:11:27;;;;;;;11.55;2.75;;;;;;;-142.75;100.00;76444.31;4989146;28;20399;-69
2021/12/08 07:13:53;;;;;;;;;;;;;;;-142.75;100.00;76444.31;4990137;28;20034;-68
2021/12/08 07:16:25;;;;;;;12.57;2.75;;;;;;;-142.75;100.00;76444.31;4990116;28;19913;-68
2021/12/08 07:19:27;;;;;;;11.47;1.97;;;;;;;-142.75;100.00;76452.19;4990105;28;20088;-70
2021/12/08 07:21:55;;;;;;;9.77;2.10;;;;;;;-142.75;100.00;76454.16;4989069;28;20083;-69
2021/12/08 07:24:33;;;;;;;11.00;2.17;;;;;;;-142.75;100.00;76464.00;4989839;28;20111;-68
2021/12/08 07:27:07;;;;;;;5.43;2.27;;;;;;;-142.75;100.00;76467.94;4989528;28;20041;-69
2021/12/08 07:29:35;;;;;;;5.53;1.70;;;;;;;-142.75;100.00;76471.88;4988338;28;20030;-69
2021/12/08 07:32:06;;;;;;;11.40;2.20;;;;;;;-142.75;100.00;76460.06;4988898;28;20039;-69
2021/12/08 07:34:34;;;;;;;10.50;2.30;;;;;;;-142.75;100.00;76462.03;4989437;28;20395;-70
2021/12/08 07:37:04;;;;;;;9.70;1.80;;;;;;;-142.75;100.00;76483.69;4987859;28;20455;-68
2021/12/08 07:39:34;;;;;;;11.03;2.40;;;;;;;-142.75;100.00;76479.75;4988151;28;20023;-68
2021/12/08 07:42:09;;;;;;;8.77;2.37;;;;;;;-142.75;100.00;76469.91;4987541;28;20033;-69
2021/12/08 07:44:34;;;;;;;11.60;2.43;;;;;;;-142.75;100.00;76487.63;4989258;28;20495;-68
2021/12/08 07:47:07;;;;;;;8.57;2.10;;;;;;;-142.75;100.00;76487.63;4989304;28;20030;-68
2021/12/08 07:49:51;;;;;;;10.17;1.90;;;;;;;-142.75;100.00;76489.59;4988675;28;20030;-69
2021/12/08 07:52:25;;;;;;;10.47;2.40;;;;;;;-142.75;100.00;76487.63;4989639;28;20026;-69
2021/12/08 07:54:52;;;;;;;14.23;2.40;;;;;;;-142.75;100.00;76477.78;4988268;28;20026;-70
2021/12/08 07:57:29;;;;;;;11.60;3.00;;;;;;;-142.75;100.00;76475.81;4989576;28;20042;-69
2021/12/08 08:00:00;;;;;;;9.67;1.60;;;;;;;-142.75;100.00;76481.72;4987119;28;20018;-69
2021/12/08 08:02:27;;;;;;;10.30;2.00;;;;;;;-142.75;100.00;76499.44;4987782;28;20027;-69
2021/12/08 08:04:56;;;;;;;11.30;2.17;;;;;;;-142.75;100.00;76493.53;4989096;28;20483;-68
2021/12/08 08:07:22;;;;;;;6.13;1.50;;;;;;;-142.75;100.00;76479.75;4989249;28;20034;-70
2021/12/08 08:09:53;;;;;;;9.18;2.58;;;;;;;-142.75;100.00;76464.00;4987301;28;20033;-69
2021/12/08 08:12:22;;;;;;;10.50;2.10;;;;;;;-142.75;100.00;76469.91;4989158;28;20072;-69
2021/12/08 08:14:53;;;;;;;10.63;2.10;;;;;;;-142.75;100.00;76469.91;4989466;28;20511;-68
2021/12/08 08:17:27;;;;;;;13.87;1.77;;;;;;;-142.75;100.00;76452.19;4987592;28;20113;-68
2021/12/08 08:19:54;;;;;;;9.63;1.73;;;;;;;-142.75;100.00;76432.50;4987219;28;20076;-68
2021/12/08 08:22:21;;;;;;;;;;;;;;;-142.75;100.00;76418.72;4988812;28;20026;-69
2021/12/08 08:24:46;;;;;;;9.02;2.10;;;;;;;-142.75;100.00;76399.03;4986532;28;19968;-67
2021/12/08 08:27:13;;;;;;;6.15;1.42;;;;;;;-142.75;100.00;76414.78;4987748;28;20108;-69
2021/12/08 08:29:39;;;;;;;8.37;1.90;;;;;;;-142.75;100.00;76424.63;4985757;28;20083;-69
2021/12/08 08:32:34;;;;;;;8.90;2.20;;;;;;;-142.75;100.00;76428.56;4987766;28;20380;-66
2021/12/08 08:35:26;;;;;;;6.80;1.80;;;;;;;-142.75;100.00;76450.22;4986130;28;20065;-69
2021/12/08 08:37:52;;;;;;;8.37;2.37;;;;;;;-142.75;100.00;76424.63;4987613;28;20507;-69
2021/12/08 08:40:26;;;;;;;8.40;1.65;;;;;;;-142.75;100.00;76402.97;4987466;28;20022;-69
2021/12/08 08:42:55;;;;;;;6.40;1.93;;;;;;;-142.75;100.00;76379.34;4987675;28;20030;-70
2021/12/08 08:45:26;;;;;;;7.13;1.80;;;;;;;-142.75;100.00;76381.31;4986735;28;20034;-70
2021/12/08 08:48:02;;;;;;;8.97;1.80;;;;;;;-142.75;100.00;76363.59;4987597;28;20502;-69
2021/12/08 08:50:38;;;;;;;6.65;1.65;;;;;;;-142.75;100.00;76345.91;4985481;28;20035;-68
2021/12/08 08:53:05;;;;;;;15.10;6.13;;;;;;;-142.75;100.00;76369.50;4987424;28;20033;-69
2021/12/08 08:55:39;;;;;;;9.47;2.90;;;;;;;-142.75;100.00;76375.41;4987356;28;20030;-68
2021/12/08 08:58:08;;;;;;;11.17;2.50;;;;;;;-142.75;100.00;76401.00;4987524;28;20034;-68
2021/12/08 09:01:03;;;;;;;8.80;2.50;;;;;;;-142.75;100.00;76406.91;4986388;28;20032;-70
2021/12/08 09:03:37;;;;;;;9.23;2.73;;;;;;;-142.75;100.00;76434.47;4986983;28;20041;-70
2021/12/08 09:06:09;;;;;;;9.13;4.37;;;;;;;-142.75;100.00;76436.44;4977737;28;20030;-70
2021/12/08 09:08:35;;;;;;;23.73;14.77;;;;;;;-142.75;100.00;76436.44;4982006;28;20067;-69
2021/12/08 09:11:21;;;;;;;13.40;8.87;;;;;;;-142.75;100.00;76465.97;4981511;28;20030;-69
2021/12/08 09:13:53;;;;;;;13.80;8.90;;;;;;;-142.75;100.00;76444.31;4987062;28;20031;-68
2021/12/08 09:16:39;;;;;;;11.10;7.30;;;;;;;-142.75;100.00;76440.38;4987023;28;20034;-68
2021/12/08 09:19:24;;;;;;;7.10;2.27;;;;;;;-142.75;100.00;76416.75;4986834;28;20041;-69
2021/12/08 09:22:11;;;;;;;7.33;2.30;;;;;;;-142.75;100.00;76428.56;4986710;28;20026;-68
2021/12/08 09:24:46;;;;;;;;;;;;;;;-142.75;100.00;76436.44;4985989;28;20022;-68
2021/12/08 09:27:14;;;;;;;10.90;1.90;;;;;;;-142.75;100.00;76420.69;4986905;28;19957;-69
2021/12/08 09:29:45;;;;;;;4.43;1.43;;;;;;;-142.75;100.00;76408.88;4985381;28;20083;-68
2021/12/08 09:32:22;;;;;;;9.63;2.00;;;;;;;-142.75;100.00;76428.56;4986706;28;20937;-69
2021/12/08 09:34:57;;;;;;;3.25;1.70;;;;;;;-142.75;100.00;76424.63;4987299;28;20018;-69
2021/12/08 09:37:26;;;;;;;6.50;2.13;;;;;;;-142.75;100.00;76420.69;4987021;28;20022;-70
2021/12/08 09:39:56;;;;;;;8.00;1.90;;;;;;;-142.75;100.00;76416.75;4986180;28;20708;-68
2021/12/08 09:42:37;;;;;;;7.00;1.50;;;;;;;-142.75;100.00;76385.25;4985516;28;20058;-68
2021/12/08 09:45:22;;;;;;;6.00;2.07;;;;;;;-142.75;100.00;76373.44;4984307;28;20034;-68
2021/12/08 09:47:48;;;;;;;13.17;2.00;;;;;;;-142.75;100.00;76381.31;4986022;28;20133;-68
2021/12/08 09:50:15;;;;;;;7.78;2.00;;;;;;;-142.75;100.00;76404.94;4982821;28;20117;-69
2021/12/08 09:52:44;;;;;;;10.90;1.83;;;;;;;-142.75;100.00;76341.97;4986901;28;20053;-68
2021/12/08 09:55:12;;;;;;;8.83;2.13;;;;;;;-142.75;100.00;76306.53;4985204;28;20026;-68
2021/12/08 09:57:38;;;;;;;4.57;1.93;;;;;;;-142.75;100.00;76377.38;4986631;28;20089;-68
2021/12/08 10:00:07;;;;;;;8.27;2.10;;;;;;;-142.75;100.00;76371.47;4985762;28;20045;-68
2021/12/08 10:02:34;;;;;;;4.00;1.60;;;;;;;-142.75;100.00;76399.03;4985483;28;20030;-68
2021/12/08 10:05:05;;;;;;;7.07;2.00;;;;;;;-142.75;100.00;76436.44;4986334;28;20030;-70
2021/12/08 10:07:31;;;;;;;6.63;1.50;;;;;;;-142.75;100.00;76452.19;4986403;28;20042;-68
2021/12/08 10:09:57;;;;;;;8.63;2.10;;;;;;;-142.75;100.00;76432.50;4984498;28;20101;-68
2021/12/08 10:12:22;;;;;;;5.38;1.70;;;;;;;-142.75;100.00;76426.59;4986649;28;20058;-71
2021/12/08 10:14:50;;;;;;;5.55;2.00;;;;;;;-142.75;100.00;76436.44;4986460;28;20027;-71
2021/12/08 10:17:17;;;;;;;8.77;2.10;;;;;;;-142.75;100.00;76428.56;4986701;28;20034;-69
2021/12/08 10:19:46;;;;;;;7.00;2.33;;;;;;;-142.75;100.00;76430.53;4985809;28;20026;-68
2021/12/08 10:22:21;;;;;;;7.80;1.80;;;;;;;-142.75;100.00;76448.25;4985282;28;20053;-69
2021/12/08 10:25:31;;;;;;;4.67;1.77;;;;;;;-142.75;100.00;76448.25;4986641;28;20053;-69
2021/12/08 10:28:12;;;;;;;9.07;2.00;;;;;;;-142.75;100.00;76450.22;4984435;28;20042;-69
2021/12/08 10:30:45;;;;;;;5.60;1.77;;;;;;;-142.75;100.00;76442.34;4987390;28;20034;-69
2021/12/08 10:33:36;;;;;;;4.13;1.50;;;;;;;-142.75;100.00;76438.41;4987169;28;20480;-68
2021/12/08 10:36:19;;;;;;;6.70;1.90;;;;;;;-142.75;100.00;76446.28;4986077;28;20026;-68
2021/12/08 10:38:44;;;;;;;3.27;1.50;;;;;;;-142.75;100.00;76440.38;4985134;28;20034;-70
2021/12/08 10:41:10;;;;;;;6.10;1.65;;;;;;;-142.75;100.00;76444.31;4983989;28;20557;-66
2021/12/08 10:43:35;;;;;;;7.82;2.15;;;;;;;-142.75;100.00;76440.38;4985933;28;20073;-69
2021/12/08 10:46:05;;;;;;;11.38;1.80;;;;;;;-142.75;100.00;76397.06;4985805;28;20434;-69
2021/12/08 10:48:38;;;;;;;6.97;1.53;;;;;;;-142.75;100.00;76373.44;4984583;28;20030;-68
2021/12/08 10:56:44;;;;;;;8.33;2.03;;;;;;;-142.75;100.00;76365.56;4986031;28;20049;-69
2021/12/08 10:59:09;;;;;;;5.28;1.70;;;;;;;-142.75;100.00;76371.47;4985697;28;20034;-68
2021/12/08 11:01:35;;;;;;;5.50;1.83;;;;;;;-142.75;100.00;76292.75;4984931;28;20116;-68
2021/12/08 11:04:05;;;;;;;7.60;1.80;;;;;;;-142.75;100.00;76296.69;4985731;28;20305;-69
2021/12/08 11:06:33;;;;;;;7.13;1.83;;;;;;;-142.75;100.00;76365.56;4984372;28;20075;-69
2021/12/08 11:08:59;;;;;;;4.03;1.60;;;;;;;-142.75;100.00;76347.84;4985602;28;20027;-69
2021/12/08 11:11:29;;;;;;;6.80;1.73;;;;;;;-142.75;100.00;76318.34;4983795;28;20068;-69
2021/12/08 11:13:59;;;;;;;8.60;1.97;;;;;;;-142.75;100.00;76282.91;4985317;28;20026;-68
2021/12/08 11:16:34;;;;;;;5.70;2.00;;;;;;;-142.75;100.00;76231.72;4985432;28;20039;-69
2021/12/08 11:19:05;;;;;;;5.23;1.70;;;;;;;-142.75;100.00;76225.81;4985639;28;20083;-69
2021/12/08 11:21:39;;;;;;;6.07;1.87;;;;;;;-142.75;100.00;76172.69;4984849;28;20030;-68
2021/12/08 11:24:18;;;;;;;7.43;2.27;;;;;;;-142.75;98.72;76186.47;4985428;28;20037;-69
2021/12/08 11:26:48;;;;;;;6.83;2.87;;;;;;;-142.75;98.04;76212.03;4987173;28;20026;-68
2021/12/08 11:29:13;;;;;;;8.30;3.00;;;;;;;-142.75;99.48;76188.44;4987507;28;20495;-69
2021/12/08 11:31:50;;;;;;;8.43;3.10;;;;;;;-142.75;98.11;76194.34;4987678;28;20171;-68
2021/12/08 11:34:21;;;;;;;10.40;2.73;;;;;;;-142.75;97.87;76162.84;4988685;28;20437;-69
2021/12/08 11:36:51;;;;;;;8.33;2.40;;;;;;;-142.75;95.96;76107.72;4987305;28;20030;-68
2021/12/08 11:39:23;;;;;;;10.00;2.67;;;;;;;-142.75;94.20;76137.25;4988990;28;20038;-69
2021/12/08 11:41:54;;;;;;;7.73;2.57;;;;;;;-142.75;93.59;76160.88;4986846;28;20057;-68
2021/12/08 11:44:27;;;;;;;7.53;2.77;;;;;;;-142.75;95.67;76188.44;4987311;28;20062;-68
2021/12/08 11:47:01;;;;;;;7.53;2.60;;;;;;;-142.75;96.86;76127.41;4988223;28;20037;-69
2021/12/08 11:49:26;;;;;;;6.30;2.70;;;;;;;-142.75;95.17;76097.88;4988551;28;20519;-69
2021/12/08 11:52:01;;;;;;;4.88;2.53;;;;;;;-142.75;94.63;76080.16;4987685;28;20117;-69
2021/12/08 11:54:50;;;;;;;8.70;2.80;;;;;;;-142.75;92.50;76101.81;4988368;28;20019;-68
2021/12/08 11:57:24;;;;;;;7.77;2.70;;;;;;;-142.75;92.98;76086.06;4988175;28;20537;-68
2021/12/08 12:00:01;;;;;;;10.07;3.67;;;;;;;-142.75;91.24;76030.97;4986218;28;20030;-69
2021/12/08 12:02:31;;;;;;;10.20;3.30;;;;;;;-142.75;89.76;75995.53;4988212;28;20018;-69
2021/12/08 12:04:58;;;;;;;7.93;2.73;;;;;;;-142.75;88.21;76042.78;4986080;28;20511;-69
2021/12/08 12:07:23;;;;;;;6.65;2.85;;;;;;;-142.75;87.16;75991.59;4985762;28;20549;-69
2021/12/08 12:09:49;;;;;;;6.80;2.50;;;;;;;-142.75;86.32;76019.16;4985933;28;20034;-69